sensor_id;sensor_type;location;lat;lon;timestamp;P1;durP1;ratioP1;P2;durP2;ratioP2
53694;SDS011;39588;51.124;7.190;2023-07-28T00:02:11;2.60;;;2.40;;
53694;SDS011;39588;51.124;7.190;2023-07-28T00:04:37;3.10;;;2.50;;
53694;SDS011;39588;51.124;7.190;2023-07-28T00:07:03;2.87;;;2.67;;
53694;SDS011;39588;51.124;7.190;2023-07-28T00:09:29;3.83;;;2.97;;
53694;SDS011;39588;51.124;7.190;2023-07-28T00:11:58;3.67;;;3.20;;
53694;SDS011;39588;51.124;7.190;2023-07-28T00:14:25;2.03;;;1.93;;
53694;SDS011;39588;51.124;7.190;2023-07-28T00:16:51;3.27;;;2.67;;
53694;SDS011;39588;51.124;7.190;2023-07-28T00:19:18;2.87;;;2.50;;
53694;SDS011;39588;51.124;7.190;2023-07-28T00:21:45;11.20;;;3.00;;
53694;SDS011;39588;51.124;7.190;2023-07-28T00:24:14;4.33;;;3.30;;
53694;SDS011;39588;51.124;7.190;2023-07-28T00:26:42;2.40;;;2.20;;
53694;SDS011;39588;51.124;7.190;2023-07-28T00:29:08;2.50;;;2.30;;
53694;SDS011;39588;51.124;7.190;2023-07-28T00:31:34;3.73;;;2.80;;
53694;SDS011;39588;51.124;7.190;2023-07-28T00:34:01;3.87;;;2.60;;
53694;SDS011;39588;51.124;7.190;2023-07-28T00:36:28;2.77;;;2.50;;
53694;SDS011;39588;51.124;7.190;2023-07-28T00:38:53;2.47;;;2.27;;
53694;SDS011;39588;51.124;7.190;2023-07-28T00:41:19;5.33;;;2.30;;
53694;SDS011;39588;51.124;7.190;2023-07-28T00:43:45;6.53;;;2.53;;
53694;SDS011;39588;51.124;7.190;2023-07-28T00:46:11;3.13;;;2.37;;
53694;SDS011;39588;51.124;7.190;2023-07-28T00:48:37;3.07;;;2.60;;
53694;SDS011;39588;51.124;7.190;2023-07-28T00:51:04;2.47;;;2.27;;
53694;SDS011;39588;51.124;7.190;2023-07-28T00:53:32;2.73;;;2.53;;
53694;SDS011;39588;51.124;7.190;2023-07-28T00:55:58;2.93;;;2.60;;
53694;SDS011;39588;51.124;7.190;2023-07-28T00:58:24;3.43;;;2.70;;
53694;SDS011;39588;51.124;7.190;2023-07-28T01:00:50;2.53;;;2.33;;
53694;SDS011;39588;51.124;7.190;2023-07-28T01:03:17;3.33;;;2.57;;
53694;SDS011;39588;51.124;7.190;2023-07-28T01:08:16;2.73;;;2.53;;
53694;SDS011;39588;51.124;7.190;2023-07-28T01:10:54;3.67;;;2.63;;
53694;SDS011;39588;51.124;7.190;2023-07-28T01:13:20;2.90;;;2.63;;
53694;SDS011;39588;51.124;7.190;2023-07-28T01:15:46;4.03;;;2.40;;
53694;SDS011;39588;51.124;7.190;2023-07-28T01:18:12;3.17;;;2.87;;
53694;SDS011;39588;51.124;7.190;2023-07-28T01:20:37;2.17;;;1.97;;
53694;SDS011;39588;51.124;7.190;2023-07-28T01:23:16;2.53;;;2.33;;
53694;SDS011;39588;51.124;7.190;2023-07-28T01:25:56;2.50;;;2.30;;
53694;SDS011;39588;51.124;7.190;2023-07-28T01:28:34;2.40;;;2.20;;
53694;SDS011;39588;51.124;7.190;2023-07-28T01:31:05;3.50;;;2.20;;
53694;SDS011;39588;51.124;7.190;2023-07-28T01:33:31;2.20;;;2.00;;
53694;SDS011;39588;51.124;7.190;2023-07-28T01:35:57;2.20;;;2.03;;
53694;SDS011;39588;51.124;7.190;2023-07-28T01:38:25;2.03;;;1.83;;
53694;SDS011;39588;51.124;7.190;2023-07-28T01:40:50;3.83;;;1.77;;
53694;SDS011;39588;51.124;7.190;2023-07-28T01:43:16;2.20;;;1.87;;
53694;SDS011;39588;51.124;7.190;2023-07-28T01:45:42;2.83;;;2.03;;
53694;SDS011;39588;51.124;7.190;2023-07-28T01:48:07;6.47;;;2.13;;
53694;SDS011;39588;51.124;7.190;2023-07-28T01:50:34;6.93;;;2.10;;
53694;SDS011;39588;51.124;7.190;2023-07-28T01:53:00;2.60;;;2.40;;
53694;SDS011;39588;51.124;7.190;2023-07-28T01:55:26;2.20;;;2.00;;
53694;SDS011;39588;51.124;7.190;2023-07-28T01:57:56;2.50;;;2.30;;
53694;SDS011;39588;51.124;7.190;2023-07-28T02:00:23;2.83;;;2.60;;
53694;SDS011;39588;51.124;7.190;2023-07-28T02:02:49;2.97;;;2.57;;
53694;SDS011;39588;51.124;7.190;2023-07-28T02:05:15;2.73;;;2.53;;
53694;SDS011;39588;51.124;7.190;2023-07-28T02:07:41;2.77;;;2.57;;
53694;SDS011;39588;51.124;7.190;2023-07-28T02:10:07;3.17;;;2.87;;
53694;SDS011;39588;51.124;7.190;2023-07-28T02:12:33;3.87;;;2.97;;
53694;SDS011;39588;51.124;7.190;2023-07-28T02:14:59;2.63;;;2.43;;
53694;SDS011;39588;51.124;7.190;2023-07-28T02:17:26;2.63;;;2.43;;
53694;SDS011;39588;51.124;7.190;2023-07-28T02:19:52;4.10;;;2.57;;
53694;SDS011;39588;51.124;7.190;2023-07-28T02:22:18;2.80;;;2.60;;
53694;SDS011;39588;51.124;7.190;2023-07-28T02:24:44;2.83;;;2.20;;
53694;SDS011;39588;51.124;7.190;2023-07-28T02:27:10;2.30;;;2.10;;
53694;SDS011;39588;51.124;7.190;2023-07-28T02:29:36;2.70;;;2.23;;
53694;SDS011;39588;51.124;7.190;2023-07-28T02:32:01;1.93;;;1.83;;
53694;SDS011;39588;51.124;7.190;2023-07-28T02:34:27;2.50;;;2.33;;
53694;SDS011;39588;51.124;7.190;2023-07-28T02:36:53;2.37;;;1.97;;
53694;SDS011;39588;51.124;7.190;2023-07-28T02:39:19;1.87;;;1.60;;
53694;SDS011;39588;51.124;7.190;2023-07-28T02:41:45;4.03;;;2.47;;
53694;SDS011;39588;51.124;7.190;2023-07-28T02:44:13;1.93;;;1.83;;
53694;SDS011;39588;51.124;7.190;2023-07-28T02:46:39;1.53;;;1.47;;
53694;SDS011;39588;51.124;7.190;2023-07-28T02:49:05;4.77;;;1.60;;
53694;SDS011;39588;51.124;7.190;2023-07-28T02:51:31;1.40;;;1.40;;
53694;SDS011;39588;51.124;7.190;2023-07-28T02:53:59;1.57;;;1.47;;
53694;SDS011;39588;51.124;7.190;2023-07-28T02:56:25;2.07;;;1.13;;
53694;SDS011;39588;51.124;7.190;2023-07-28T02:58:51;1.07;;;1.00;;
53694;SDS011;39588;51.124;7.190;2023-07-28T03:01:17;0.77;;;0.77;;
53694;SDS011;39588;51.124;7.190;2023-07-28T03:03:43;1.13;;;1.13;;
53694;SDS011;39588;51.124;7.190;2023-07-28T03:06:09;1.00;;;1.00;;
53694;SDS011;39588;51.124;7.190;2023-07-28T03:08:35;0.93;;;0.90;;
53694;SDS011;39588;51.124;7.190;2023-07-28T03:11:01;0.90;;;0.90;;
53694;SDS011;39588;51.124;7.190;2023-07-28T03:13:28;1.30;;;1.30;;
53694;SDS011;39588;51.124;7.190;2023-07-28T03:15:54;1.03;;;1.03;;
53694;SDS011;39588;51.124;7.190;2023-07-28T03:18:19;0.77;;;0.77;;
53694;SDS011;39588;51.124;7.190;2023-07-28T03:20:46;1.03;;;1.03;;
53694;SDS011;39588;51.124;7.190;2023-07-28T03:23:12;1.43;;;1.43;;
53694;SDS011;39588;51.124;7.190;2023-07-28T03:25:38;1.00;;;1.00;;
53694;SDS011;39588;51.124;7.190;2023-07-28T03:28:04;1.47;;;1.37;;
53694;SDS011;39588;51.124;7.190;2023-07-28T03:30:30;1.63;;;1.53;;
53694;SDS011;39588;51.124;7.190;2023-07-28T03:32:56;1.67;;;1.40;;
53694;SDS011;39588;51.124;7.190;2023-07-28T03:35:22;1.60;;;1.50;;
53694;SDS011;39588;51.124;7.190;2023-07-28T03:37:48;1.40;;;1.30;;
53694;SDS011;39588;51.124;7.190;2023-07-28T03:40:13;1.70;;;1.60;;
53694;SDS011;39588;51.124;7.190;2023-07-28T03:42:39;1.20;;;1.20;;
53694;SDS011;39588;51.124;7.190;2023-07-28T03:45:05;1.53;;;1.43;;
53694;SDS011;39588;51.124;7.190;2023-07-28T03:47:31;1.20;;;1.17;;
53694;SDS011;39588;51.124;7.190;2023-07-28T03:49:56;0.93;;;0.93;;
53694;SDS011;39588;51.124;7.190;2023-07-28T03:52:22;1.23;;;1.23;;
53694;SDS011;39588;51.124;7.190;2023-07-28T03:54:48;1.60;;;1.50;;
53694;SDS011;39588;51.124;7.190;2023-07-28T03:57:14;1.20;;;1.10;;
53694;SDS011;39588;51.124;7.190;2023-07-28T03:59:40;7.30;;;1.73;;
53694;SDS011;39588;51.124;7.190;2023-07-28T04:02:06;0.93;;;0.93;;
53694;SDS011;39588;51.124;7.190;2023-07-28T04:04:35;1.63;;;1.40;;
53694;SDS011;39588;51.124;7.190;2023-07-28T04:07:01;1.10;;;1.10;;
53694;SDS011;39588;51.124;7.190;2023-07-28T04:09:27;1.20;;;1.10;;
53694;SDS011;39588;51.124;7.190;2023-07-28T04:11:53;1.33;;;1.33;;
53694;SDS011;39588;51.124;7.190;2023-07-28T04:14:19;1.30;;;1.30;;
53694;SDS011;39588;51.124;7.190;2023-07-28T04:16:45;2.17;;;1.63;;
53694;SDS011;39588;51.124;7.190;2023-07-28T04:19:10;1.60;;;1.50;;
53694;SDS011;39588;51.124;7.190;2023-07-28T04:21:36;1.30;;;1.20;;
53694;SDS011;39588;51.124;7.190;2023-07-28T04:24:06;1.67;;;1.57;;
53694;SDS011;39588;51.124;7.190;2023-07-28T04:26:32;1.40;;;1.30;;
53694;SDS011;39588;51.124;7.190;2023-07-28T04:28:58;1.50;;;1.40;;
53694;SDS011;39588;51.124;7.190;2023-07-28T04:31:23;1.30;;;1.20;;
53694;SDS011;39588;51.124;7.190;2023-07-28T04:33:49;0.97;;;0.90;;
53694;SDS011;39588;51.124;7.190;2023-07-28T04:36:15;1.10;;;1.00;;
53694;SDS011;39588;51.124;7.190;2023-07-28T04:38:40;5.47;;;1.00;;
53694;SDS011;39588;51.124;7.190;2023-07-28T04:41:06;1.07;;;1.07;;
53694;SDS011;39588;51.124;7.190;2023-07-28T04:43:32;1.07;;;1.07;;
53694;SDS011;39588;51.124;7.190;2023-07-28T04:45:57;0.80;;;0.80;;
53694;SDS011;39588;51.124;7.190;2023-07-28T04:48:23;1.13;;;1.10;;
53694;SDS011;39588;51.124;7.190;2023-07-28T04:50:50;3.87;;;0.90;;
53694;SDS011;39588;51.124;7.190;2023-07-28T04:53:15;0.87;;;0.87;;
53694;SDS011;39588;51.124;7.190;2023-07-28T04:55:41;0.80;;;0.80;;
53694;SDS011;39588;51.124;7.190;2023-07-28T04:58:06;0.90;;;0.90;;
53694;SDS011;39588;51.124;7.190;2023-07-28T05:00:32;1.10;;;0.83;;
53694;SDS011;39588;51.124;7.190;2023-07-28T05:02:58;0.70;;;0.70;;
53694;SDS011;39588;51.124;7.190;2023-07-28T05:05:24;0.70;;;0.70;;
53694;SDS011;39588;51.124;7.190;2023-07-28T05:07:50;0.70;;;0.70;;
53694;SDS011;39588;51.124;7.190;2023-07-28T05:10:16;3.23;;;0.83;;
53694;SDS011;39588;51.124;7.190;2023-07-28T05:12:42;0.80;;;0.80;;
53694;SDS011;39588;51.124;7.190;2023-07-28T05:15:08;0.73;;;0.73;;
53694;SDS011;39588;51.124;7.190;2023-07-28T05:17:35;0.90;;;0.90;;
53694;SDS011;39588;51.124;7.190;2023-07-28T05:20:02;0.70;;;0.70;;
53694;SDS011;39588;51.124;7.190;2023-07-28T05:22:28;0.80;;;0.80;;
53694;SDS011;39588;51.124;7.190;2023-07-28T05:24:53;6.40;;;0.90;;
53694;SDS011;39588;51.124;7.190;2023-07-28T05:27:19;0.90;;;0.90;;
53694;SDS011;39588;51.124;7.190;2023-07-28T05:29:45;0.70;;;0.70;;
53694;SDS011;39588;51.124;7.190;2023-07-28T05:32:11;0.87;;;0.87;;
53694;SDS011;39588;51.124;7.190;2023-07-28T05:34:36;1.43;;;1.20;;
53694;SDS011;39588;51.124;7.190;2023-07-28T05:37:03;0.70;;;0.70;;
53694;SDS011;39588;51.124;7.190;2023-07-28T05:39:29;1.23;;;0.90;;
53694;SDS011;39588;51.124;7.190;2023-07-28T05:41:55;1.10;;;1.10;;
53694;SDS011;39588;51.124;7.190;2023-07-28T05:44:21;0.93;;;0.93;;
53694;SDS011;39588;51.124;7.190;2023-07-28T05:46:46;0.80;;;0.80;;
53694;SDS011;39588;51.124;7.190;2023-07-28T05:49:13;0.57;;;0.57;;
53694;SDS011;39588;51.124;7.190;2023-07-28T05:51:39;0.60;;;0.60;;
53694;SDS011;39588;51.124;7.190;2023-07-28T05:54:05;1.00;;;1.00;;
53694;SDS011;39588;51.124;7.190;2023-07-28T05:56:30;34.17;;;1.87;;
53694;SDS011;39588;51.124;7.190;2023-07-28T05:58:56;1.73;;;1.27;;
53694;SDS011;39588;51.124;7.190;2023-07-28T06:01:22;8.47;;;1.43;;
53694;SDS011;39588;51.124;7.190;2023-07-28T06:03:50;43.37;;;2.57;;
53694;SDS011;39588;51.124;7.190;2023-07-28T06:06:17;18.87;;;2.70;;
53694;SDS011;39588;51.124;7.190;2023-07-28T06:08:43;43.53;;;2.13;;
53694;SDS011;39588;51.124;7.190;2023-07-28T06:11:09;9.03;;;1.73;;
53694;SDS011;39588;51.124;7.190;2023-07-28T06:13:35;85.77;;;4.10;;
53694;SDS011;39588;51.124;7.190;2023-07-28T06:16:01;35.23;;;3.63;;
53694;SDS011;39588;51.124;7.190;2023-07-28T06:18:27;61.07;;;3.60;;
53694;SDS011;39588;51.124;7.190;2023-07-28T06:20:53;57.90;;;3.00;;
53694;SDS011;39588;51.124;7.190;2023-07-28T06:23:19;61.10;;;2.70;;
53694;SDS011;39588;51.124;7.190;2023-07-28T06:25:45;28.20;;;2.20;;
53694;SDS011;39588;51.124;7.190;2023-07-28T06:28:11;2.50;;;1.20;;
53694;SDS011;39588;51.124;7.190;2023-07-28T06:30:37;4.30;;;1.30;;
53694;SDS011;39588;51.124;7.190;2023-07-28T06:33:05;13.80;;;1.60;;
53694;SDS011;39588;51.124;7.190;2023-07-28T06:35:31;3.27;;;1.83;;
53694;SDS011;39588;51.124;7.190;2023-07-28T06:37:57;1.07;;;1.00;;
53694;SDS011;39588;51.124;7.190;2023-07-28T06:40:24;5.13;;;1.53;;
53694;SDS011;39588;51.124;7.190;2023-07-28T06:42:50;13.63;;;1.87;;
53694;SDS011;39588;51.124;7.190;2023-07-28T06:45:16;6.53;;;1.40;;
53694;SDS011;39588;51.124;7.190;2023-07-28T06:47:42;1.00;;;1.00;;
53694;SDS011;39588;51.124;7.190;2023-07-28T06:50:08;8.43;;;1.10;;
53694;SDS011;39588;51.124;7.190;2023-07-28T06:52:36;15.53;;;1.93;;
53694;SDS011;39588;51.124;7.190;2023-07-28T06:55:01;6.67;;;1.20;;
53694;SDS011;39588;51.124;7.190;2023-07-28T06:57:28;7.40;;;1.33;;
53694;SDS011;39588;51.124;7.190;2023-07-28T06:59:55;5.00;;;1.10;;
53694;SDS011;39588;51.124;7.190;2023-07-28T07:02:21;0.60;;;0.60;;
53694;SDS011;39588;51.124;7.190;2023-07-28T07:04:46;0.43;;;0.43;;
53694;SDS011;39588;51.124;7.190;2023-07-28T07:07:12;1.37;;;0.77;;
53694;SDS011;39588;51.124;7.190;2023-07-28T07:09:38;17.23;;;1.30;;
53694;SDS011;39588;51.124;7.190;2023-07-28T07:12:05;0.60;;;0.60;;
53694;SDS011;39588;51.124;7.190;2023-07-28T07:14:32;0.60;;;0.60;;
53694;SDS011;39588;51.124;7.190;2023-07-28T07:16:58;6.43;;;1.07;;
53694;SDS011;39588;51.124;7.190;2023-07-28T07:19:24;8.30;;;1.27;;
53694;SDS011;39588;51.124;7.190;2023-07-28T07:21:50;23.77;;;1.93;;
53694;SDS011;39588;51.124;7.190;2023-07-28T07:24:16;15.43;;;2.27;;
53694;SDS011;39588;51.124;7.190;2023-07-28T07:26:42;68.40;;;3.77;;
53694;SDS011;39588;51.124;7.190;2023-07-28T07:29:08;22.17;;;2.50;;
53694;SDS011;39588;51.124;7.190;2023-07-28T07:31:34;0.90;;;0.90;;
53694;SDS011;39588;51.124;7.190;2023-07-28T07:34:00;36.10;;;2.60;;
53694;SDS011;39588;51.124;7.190;2023-07-28T07:36:26;20.27;;;2.20;;
53694;SDS011;39588;51.124;7.190;2023-07-28T07:38:51;0.90;;;0.90;;
53694;SDS011;39588;51.124;7.190;2023-07-28T07:41:17;21.00;;;1.67;;
53694;SDS011;39588;51.124;7.190;2023-07-28T07:43:47;1.10;;;1.10;;
53694;SDS011;39588;51.124;7.190;2023-07-28T07:46:14;3.20;;;1.47;;
53694;SDS011;39588;51.124;7.190;2023-07-28T07:48:40;24.97;;;1.87;;
53694;SDS011;39588;51.124;7.190;2023-07-28T07:51:06;10.07;;;1.50;;
53694;SDS011;39588;51.124;7.190;2023-07-28T07:53:32;4.77;;;1.70;;
53694;SDS011;39588;51.124;7.190;2023-07-28T07:55:58;17.37;;;2.07;;
53694;SDS011;39588;51.124;7.190;2023-07-28T07:58:23;7.80;;;2.07;;
53694;SDS011;39588;51.124;7.190;2023-07-28T08:00:49;4.27;;;1.43;;
53694;SDS011;39588;51.124;7.190;2023-07-28T08:03:15;1.47;;;1.20;;
53694;SDS011;39588;51.124;7.190;2023-07-28T08:05:41;7.20;;;1.53;;
53694;SDS011;39588;51.124;7.190;2023-07-28T08:08:07;22.27;;;2.90;;
53694;SDS011;39588;51.124;7.190;2023-07-28T08:10:34;1.70;;;1.60;;
53694;SDS011;39588;51.124;7.190;2023-07-28T08:13:00;10.70;;;2.00;;
53694;SDS011;39588;51.124;7.190;2023-07-28T08:15:26;43.23;;;3.33;;
53694;SDS011;39588;51.124;7.190;2023-07-28T08:17:52;2.73;;;1.37;;
53694;SDS011;39588;51.124;7.190;2023-07-28T08:20:18;13.63;;;1.87;;
53694;SDS011;39588;51.124;7.190;2023-07-28T08:22:44;11.70;;;2.10;;
53694;SDS011;39588;51.124;7.190;2023-07-28T08:25:10;5.17;;;2.00;;
53694;SDS011;39588;51.124;7.190;2023-07-28T08:27:35;1.63;;;1.53;;
53694;SDS011;39588;51.124;7.190;2023-07-28T08:30:02;1.77;;;1.67;;
53694;SDS011;39588;51.124;7.190;2023-07-28T08:32:28;2.67;;;2.00;;
53694;SDS011;39588;51.124;7.190;2023-07-28T08:34:54;2.27;;;2.07;;
53694;SDS011;39588;51.124;7.190;2023-07-28T08:37:20;4.20;;;2.57;;
53694;SDS011;39588;51.124;7.190;2023-07-28T08:39:46;2.90;;;2.40;;
53694;SDS011;39588;51.124;7.190;2023-07-28T08:42:12;4.40;;;2.13;;
53694;SDS011;39588;51.124;7.190;2023-07-28T08:44:37;4.13;;;2.17;;
53694;SDS011;39588;51.124;7.190;2023-07-28T08:47:03;2.47;;;2.20;;
53694;SDS011;39588;51.124;7.190;2023-07-28T08:49:33;2.77;;;2.17;;
53694;SDS011;39588;51.124;7.190;2023-07-28T08:52:01;4.40;;;2.50;;
53694;SDS011;39588;51.124;7.190;2023-07-28T08:54:28;4.27;;;2.90;;
53694;SDS011;39588;51.124;7.190;2023-07-28T08:56:54;2.80;;;2.00;;
53694;SDS011;39588;51.124;7.190;2023-07-28T08:59:20;4.70;;;2.70;;
53694;SDS011;39588;51.124;7.190;2023-07-28T09:01:51;2.50;;;2.30;;
53694;SDS011;39588;51.124;7.190;2023-07-28T09:04:17;2.30;;;2.10;;
53694;SDS011;39588;51.124;7.190;2023-07-28T09:06:49;8.27;;;2.43;;
53694;SDS011;39588;51.124;7.190;2023-07-28T09:09:15;6.93;;;3.70;;
53694;SDS011;39588;51.124;7.190;2023-07-28T09:11:44;4.63;;;3.23;;
53694;SDS011;39588;51.124;7.190;2023-07-28T09:14:15;3.07;;;2.60;;
53694;SDS011;39588;51.124;7.190;2023-07-28T09:16:42;2.67;;;2.30;;
53694;SDS011;39588;51.124;7.190;2023-07-28T09:19:09;8.47;;;2.23;;
53694;SDS011;39588;51.124;7.190;2023-07-28T09:21:35;2.97;;;2.67;;
53694;SDS011;39588;51.124;7.190;2023-07-28T09:24:05;3.23;;;2.53;;
53694;SDS011;39588;51.124;7.190;2023-07-28T09:29:17;2.23;;;2.10;;
53694;SDS011;39588;51.124;7.190;2023-07-28T09:31:45;3.43;;;3.00;;
53694;SDS011;39588;51.124;7.190;2023-07-28T09:34:12;2.30;;;2.17;;
53694;SDS011;39588;51.124;7.190;2023-07-28T09:36:47;3.07;;;2.77;;
53694;SDS011;39588;51.124;7.190;2023-07-28T09:39:14;2.40;;;2.20;;
53694;SDS011;39588;51.124;7.190;2023-07-28T09:41:40;3.33;;;2.43;;
53694;SDS011;39588;51.124;7.190;2023-07-28T09:44:05;2.97;;;2.30;;
53694;SDS011;39588;51.124;7.190;2023-07-28T09:46:34;8.97;;;2.97;;
53694;SDS011;39588;51.124;7.190;2023-07-28T09:49:05;4.27;;;2.70;;
53694;SDS011;39588;51.124;7.190;2023-07-28T09:51:37;2.80;;;2.60;;
53694;SDS011;39588;51.124;7.190;2023-07-28T09:54:11;3.87;;;2.47;;
53694;SDS011;39588;51.124;7.190;2023-07-28T09:56:43;7.37;;;2.50;;
53694;SDS011;39588;51.124;7.190;2023-07-28T09:59:13;3.03;;;2.30;;
53694;SDS011;39588;51.124;7.190;2023-07-28T10:01:43;7.87;;;3.30;;
53694;SDS011;39588;51.124;7.190;2023-07-28T10:04:10;5.37;;;2.80;;
53694;SDS011;39588;51.124;7.190;2023-07-28T10:06:36;2.70;;;2.20;;
53694;SDS011;39588;51.124;7.190;2023-07-28T10:09:03;3.27;;;2.97;;
53694;SDS011;39588;51.124;7.190;2023-07-28T10:11:30;3.10;;;2.60;;
53694;SDS011;39588;51.124;7.190;2023-07-28T10:13:57;4.70;;;2.57;;
53694;SDS011;39588;51.124;7.190;2023-07-28T10:16:30;2.63;;;2.43;;
53694;SDS011;39588;51.124;7.190;2023-07-28T10:19:02;2.50;;;2.30;;
53694;SDS011;39588;51.124;7.190;2023-07-28T10:21:28;2.67;;;2.47;;
53694;SDS011;39588;51.124;7.190;2023-07-28T10:23:55;2.80;;;2.60;;
53694;SDS011;39588;51.124;7.190;2023-07-28T10:29:22;3.10;;;2.57;;
53694;SDS011;39588;51.124;7.190;2023-07-28T10:31:51;3.00;;;2.70;;
53694;SDS011;39588;51.124;7.190;2023-07-28T10:34:18;3.23;;;2.70;;
53694;SDS011;39588;51.124;7.190;2023-07-28T10:36:44;8.97;;;2.33;;
53694;SDS011;39588;51.124;7.190;2023-07-28T10:39:14;2.50;;;2.20;;
53694;SDS011;39588;51.124;7.190;2023-07-28T10:44:32;4.27;;;1.93;;
53694;SDS011;39588;51.124;7.190;2023-07-28T10:46:58;3.10;;;2.07;;
53694;SDS011;39588;51.124;7.190;2023-07-28T10:49:25;2.70;;;2.20;;
53694;SDS011;39588;51.124;7.190;2023-07-28T10:51:51;3.53;;;2.67;;
53694;SDS011;39588;51.124;7.190;2023-07-28T10:54:17;2.53;;;2.30;;
53694;SDS011;39588;51.124;7.190;2023-07-28T10:56:45;2.60;;;2.40;;
53694;SDS011;39588;51.124;7.190;2023-07-28T10:59:11;2.10;;;2.00;;
53694;SDS011;39588;51.124;7.190;2023-07-28T11:01:38;3.20;;;2.27;;
53694;SDS011;39588;51.124;7.190;2023-07-28T11:04:14;5.90;;;2.47;;
53694;SDS011;39588;51.124;7.190;2023-07-28T11:06:42;1.90;;;1.80;;
53694;SDS011;39588;51.124;7.190;2023-07-28T11:09:10;2.20;;;2.00;;
53694;SDS011;39588;51.124;7.190;2023-07-28T11:11:39;1.87;;;1.77;;
53694;SDS011;39588;51.124;7.190;2023-07-28T11:14:05;2.33;;;2.13;;
53694;SDS011;39588;51.124;7.190;2023-07-28T11:16:35;2.20;;;2.10;;
53694;SDS011;39588;51.124;7.190;2023-07-28T11:19:03;1.30;;;1.30;;
53694;SDS011;39588;51.124;7.190;2023-07-28T11:21:36;0.90;;;0.90;;
53694;SDS011;39588;51.124;7.190;2023-07-28T11:24:09;2.93;;;1.30;;
53694;SDS011;39588;51.124;7.190;2023-07-28T11:26:36;1.47;;;1.37;;
53694;SDS011;39588;51.124;7.190;2023-07-28T11:29:03;1.87;;;1.43;;
53694;SDS011;39588;51.124;7.190;2023-07-28T11:31:29;1.30;;;1.30;;
53694;SDS011;39588;51.124;7.190;2023-07-28T11:33:55;1.80;;;1.20;;
53694;SDS011;39588;51.124;7.190;2023-07-28T11:36:24;1.20;;;1.20;;
53694;SDS011;39588;51.124;7.190;2023-07-28T11:38:52;1.40;;;1.10;;
53694;SDS011;39588;51.124;7.190;2023-07-28T11:41:20;1.20;;;1.10;;
53694;SDS011;39588;51.124;7.190;2023-07-28T11:43:49;1.40;;;1.30;;
53694;SDS011;39588;51.124;7.190;2023-07-28T11:46:34;1.20;;;1.20;;
53694;SDS011;39588;51.124;7.190;2023-07-28T11:51:44;1.93;;;1.60;;
53694;SDS011;39588;51.124;7.190;2023-07-28T11:54:12;1.30;;;1.30;;
53694;SDS011;39588;51.124;7.190;2023-07-28T11:56:42;1.00;;;1.00;;
53694;SDS011;39588;51.124;7.190;2023-07-28T11:59:08;1.33;;;0.97;;
53694;SDS011;39588;51.124;7.190;2023-07-28T12:01:35;1.03;;;1.03;;
53694;SDS011;39588;51.124;7.190;2023-07-28T12:07:14;1.07;;;0.97;;
53694;SDS011;39588;51.124;7.190;2023-07-28T12:12:42;0.70;;;0.70;;
53694;SDS011;39588;51.124;7.190;2023-07-28T12:15:27;1.00;;;1.00;;
53694;SDS011;39588;51.124;7.190;2023-07-28T12:20:41;2.87;;;1.13;;
53694;SDS011;39588;51.124;7.190;2023-07-28T12:23:12;2.90;;;1.10;;
53694;SDS011;39588;51.124;7.190;2023-07-28T12:25:40;1.30;;;1.30;;
53694;SDS011;39588;51.124;7.190;2023-07-28T12:28:06;0.93;;;0.93;;
53694;SDS011;39588;51.124;7.190;2023-07-28T12:30:35;2.50;;;1.00;;
53694;SDS011;39588;51.124;7.190;2023-07-28T12:33:01;2.20;;;1.50;;
53694;SDS011;39588;51.124;7.190;2023-07-28T12:35:27;1.40;;;1.30;;
53694;SDS011;39588;51.124;7.190;2023-07-28T12:37:57;2.47;;;1.23;;
53694;SDS011;39588;51.124;7.190;2023-07-28T12:40:26;2.57;;;1.40;;
53694;SDS011;39588;51.124;7.190;2023-07-28T12:42:53;1.63;;;1.53;;
53694;SDS011;39588;51.124;7.190;2023-07-28T12:45:19;1.30;;;1.30;;
53694;SDS011;39588;51.124;7.190;2023-07-28T12:47:46;2.53;;;1.90;;
53694;SDS011;39588;51.124;7.190;2023-07-28T12:50:12;2.33;;;1.70;;
53694;SDS011;39588;51.124;7.190;2023-07-28T12:52:37;3.50;;;2.80;;
53694;SDS011;39588;51.124;7.190;2023-07-28T12:55:03;2.17;;;2.00;;
53694;SDS011;39588;51.124;7.190;2023-07-28T12:57:30;1.63;;;1.53;;
53694;SDS011;39588;51.124;7.190;2023-07-28T12:59:57;4.20;;;1.50;;
53694;SDS011;39588;51.124;7.190;2023-07-28T13:02:23;1.30;;;1.30;;
53694;SDS011;39588;51.124;7.190;2023-07-28T13:04:49;1.23;;;1.13;;
53694;SDS011;39588;51.124;7.190;2023-07-28T13:07:14;2.23;;;1.10;;
53694;SDS011;39588;51.124;7.190;2023-07-28T13:09:41;3.83;;;1.60;;
53694;SDS011;39588;51.124;7.190;2023-07-28T13:12:07;1.23;;;1.20;;
53694;SDS011;39588;51.124;7.190;2023-07-28T13:14:33;1.37;;;1.27;;
53694;SDS011;39588;51.124;7.190;2023-07-28T13:16:59;1.20;;;1.20;;
53694;SDS011;39588;51.124;7.190;2023-07-28T13:19:25;1.33;;;1.30;;
53694;SDS011;39588;51.124;7.190;2023-07-28T13:21:51;1.30;;;1.20;;
53694;SDS011;39588;51.124;7.190;2023-07-28T13:24:17;2.80;;;1.10;;
53694;SDS011;39588;51.124;7.190;2023-07-28T13:26:43;1.33;;;1.23;;
53694;SDS011;39588;51.124;7.190;2023-07-28T13:29:09;1.83;;;1.70;;
53694;SDS011;39588;51.124;7.190;2023-07-28T13:31:35;1.27;;;1.20;;
53694;SDS011;39588;51.124;7.190;2023-07-28T13:34:01;1.17;;;1.07;;
53694;SDS011;39588;51.124;7.190;2023-07-28T13:36:27;2.93;;;1.27;;
53694;SDS011;39588;51.124;7.190;2023-07-28T13:38:53;1.40;;;1.30;;
53694;SDS011;39588;51.124;7.190;2023-07-28T13:41:18;1.97;;;1.87;;
53694;SDS011;39588;51.124;7.190;2023-07-28T13:43:44;1.27;;;1.27;;
53694;SDS011;39588;51.124;7.190;2023-07-28T13:46:10;4.57;;;1.00;;
53694;SDS011;39588;51.124;7.190;2023-07-28T13:48:36;0.93;;;0.93;;
53694;SDS011;39588;51.124;7.190;2023-07-28T13:51:04;0.90;;;0.90;;
53694;SDS011;39588;51.124;7.190;2023-07-28T13:53:30;4.93;;;1.30;;
53694;SDS011;39588;51.124;7.190;2023-07-28T13:55:56;1.03;;;0.97;;
53694;SDS011;39588;51.124;7.190;2023-07-28T13:58:22;1.40;;;1.30;;
53694;SDS011;39588;51.124;7.190;2023-07-28T14:00:49;2.50;;;1.30;;
53694;SDS011;39588;51.124;7.190;2023-07-28T14:03:15;1.07;;;1.07;;
53694;SDS011;39588;51.124;7.190;2023-07-28T14:05:41;1.53;;;1.40;;
53694;SDS011;39588;51.124;7.190;2023-07-28T14:08:07;1.53;;;1.20;;
53694;SDS011;39588;51.124;7.190;2023-07-28T14:10:32;2.67;;;1.23;;
53694;SDS011;39588;51.124;7.190;2023-07-28T14:12:59;1.03;;;1.00;;
53694;SDS011;39588;51.124;7.190;2023-07-28T14:15:25;2.10;;;1.50;;
53694;SDS011;39588;51.124;7.190;2023-07-28T14:17:51;1.10;;;1.10;;
53694;SDS011;39588;51.124;7.190;2023-07-28T14:20:17;1.33;;;1.23;;
53694;SDS011;39588;51.124;7.190;2023-07-28T14:22:42;1.10;;;1.10;;
53694;SDS011;39588;51.124;7.190;2023-07-28T14:25:08;0.87;;;0.87;;
53694;SDS011;39588;51.124;7.190;2023-07-28T14:27:34;1.10;;;1.10;;
53694;SDS011;39588;51.124;7.190;2023-07-28T14:29:59;1.67;;;1.47;;
53694;SDS011;39588;51.124;7.190;2023-07-28T14:32:25;1.53;;;1.43;;
53694;SDS011;39588;51.124;7.190;2023-07-28T14:34:51;1.30;;;1.30;;
53694;SDS011;39588;51.124;7.190;2023-07-28T14:37:18;0.93;;;0.93;;
53694;SDS011;39588;51.124;7.190;2023-07-28T14:39:43;4.83;;;1.10;;
53694;SDS011;39588;51.124;7.190;2023-07-28T14:42:09;0.70;;;0.70;;
53694;SDS011;39588;51.124;7.190;2023-07-28T14:44:35;0.90;;;0.90;;
53694;SDS011;39588;51.124;7.190;2023-07-28T14:47:01;4.97;;;0.90;;
53694;SDS011;39588;51.124;7.190;2023-07-28T14:49:27;1.17;;;1.13;;
53694;SDS011;39588;51.124;7.190;2023-07-28T14:51:54;0.80;;;0.80;;
53694;SDS011;39588;51.124;7.190;2023-07-28T14:54:19;0.73;;;0.73;;
53694;SDS011;39588;51.124;7.190;2023-07-28T14:56:45;0.60;;;0.60;;
53694;SDS011;39588;51.124;7.190;2023-07-28T14:59:11;0.70;;;0.70;;
53694;SDS011;39588;51.124;7.190;2023-07-28T15:01:36;1.73;;;0.90;;
53694;SDS011;39588;51.124;7.190;2023-07-28T15:04:02;0.90;;;0.90;;
53694;SDS011;39588;51.124;7.190;2023-07-28T15:06:30;0.87;;;0.87;;